Maersk Nimes — VRFO7 — position and weather

sailwx.info

Track history (hours):
 
Tides and Currents Weather Stations Pressure Air Temp Water Temp Dewpoint Dewpoint Depression Visibility Wind Speed Wind Dir Waves Ship Positions

Maersk Nimes

Last reported at 2014-Sep-01 09:16 UTC. Time now 2014-Sep-01 11:44 UTC.
Position N 59°53' E 030°12'.

Length 210 m; draft 10.5 m.

Type: Cargo ship. MMSI: 477559200.

Date/timePositionNaut miles runAvg speedWind from/ knotsBaromVisibWave heightAir tempDewpointWater temp
2014-Sep-01 09:16N 59°53' E 030°12'0 0.1
2014-Sep-01 08:33N 59°53' E 030°12'0 0.0
2014-Aug-31 09:32N 59°53' E 030°11'1 1.2
2014-Aug-31 08:25N 59°54' E 030°14'0 0.0
2014-Aug-31 07:28N 59°54' E 030°14'0 0.0
2014-Aug-31 06:28N 59°54' E 030°14'0 0.0
2014-Aug-31 05:31N 59°54' E 030°14'0 0.0
2014-Aug-31 04:31N 59°54' E 030°14'0 0.0
2014-Aug-31 03:16N 59°54' E 030°14'0 0.0
2014-Aug-31 02:31N 59°54' E 030°14'0 0.0
2014-Aug-31 01:28N 59°54' E 030°14'0 0.0
2014-Aug-31 00:31N 59°54' E 030°14'0 0.0
2014-Aug-30 23:31N 59°54' E 030°14'0 0.0
2014-Aug-30 22:31N 59°54' E 030°14'0 0.0
2014-Aug-30 21:31N 59°54' E 030°14'0 0.0
2014-Aug-30 20:31N 59°54' E 030°14'0 0.0
2014-Aug-30 19:31N 59°54' E 030°14'0 0.0
2014-Aug-30 18:31N 59°54' E 030°14'0 0.0
2014-Aug-30 17:25N 59°54' E 030°14'0 0.0
2014-Aug-30 16:28N 59°54' E 030°14'0 0.0
2014-Aug-30 15:31N 59°54' E 030°14'0 0.0
2014-Aug-30 14:31N 59°54' E 030°14'0 0.1
2014-Aug-30 13:33N 59°53' E 030°13'6 5.7
2014-Aug-30 12:33N 59°55' E 030°02'8313.8
2014-Aug-30 06:33N 60°02' E 027°18'1616.1
2014-Aug-30 05:33N 59°59' E 026°46'1716.9
2014-Aug-30 04:33N 59°57' E 026°13'3516.9
2014-Aug-30 02:29N 59°48' E 025°05'1617.3
2014-Aug-30 01:34N 59°45' E 024°34'1717.3
2014-Aug-30 00:33N 59°41' E 024°01'1817.6
2014-Aug-29 23:33N 59°36' E 023°27'1817.2
2014-Aug-29 22:30N 59°29' E 022°54'24217.0
2014-Aug-29 08:19N 56°30' E 017°48'1317.2
2014-Aug-29 07:33N 56°21' E 017°30'1717.3
2014-Aug-29 06:33N 56°10' E 017°06'7016.9
2014-Aug-29 02:25N 55°34' E 015°20'1416.4
2014-Aug-29 01:33N 55°27' E 014°58'1616.3
2014-Aug-29 00:33N 55°18' E 014°34'1717.1
2014-Aug-28 23:33N 55°05' E 014°15'1616.1
2014-Aug-28 22:33N 54°57' E 013°51'1616.4
2014-Aug-28 21:33N 54°51' E 013°24'1616.0
2014-Aug-28 20:33N 54°47' E 012°57'1616.5
2014-Aug-28 19:33N 54°41' E 012°30'1414.4
2014-Aug-28 18:33N 54°30' E 012°14'1814.0
2014-Aug-28 17:16N 54°26' E 011°44'1217.5
2014-Aug-28 16:33N 54°31' E 011°25'1716.9
2014-Aug-28 15:33N 54°36' E 010°57'1413.3
2014-Aug-28 14:30N 54°50' E 010°50'7314.5
2014-Aug-28 09:29N 56°02' E 011°05'1616.8
2014-Aug-28 08:31N 56°15' E 011°21'1617.0
2014-Aug-28 07:33N 56°30' E 011°35'1716.9
2014-Aug-28 06:33N 56°45' E 011°50'1717.0
2014-Aug-28 05:33N 57°01' E 011°41'1717.0
2014-Aug-28 04:33N 57°17' E 011°30'1716.8
2014-Aug-28 03:33N 57°31' E 011°14'1716.9
2014-Aug-28 02:33N 57°43' E 010°51'1312.6
2014-Aug-28 01:33N 57°47' E 010°29'1615.6
2014-Aug-28 00:33N 57°45' E 009°60'1616.0
2014-Aug-27 23:33N 57°44' E 009°30'1615.9
2014-Aug-27 22:33N 57°36' E 009°05'1616.1
2014-Aug-27 21:33N 57°25' E 008°41'1616.0
2014-Aug-27 20:33N 57°15' E 008°19'2316.0
2014-Aug-27 19:08N 57°01' E 007°47'1016.0
2014-Aug-27 18:31N 56°56' E 007°31'8115.6
2014-Aug-27 13:21N 55°40' E 006°43'5911.6
2014-Aug-27 08:18N 54°43' E 007°07'911.4
2014-Aug-27 07:33N 54°35' E 007°13'1111.6
2014-Aug-27 06:34N 54°24' E 007°20'1212.2
2014-Aug-27 05:33N 54°13' E 007°28'1312.8
2014-Aug-27 04:33N 54°02' E 007°38'1210.1
2014-Aug-27 03:25N 53°52' E 007°50'1213.6
2014-Aug-27 02:33N 53°48' E 008°09'1313.1
2014-Aug-27 01:33N 53°39' E 008°25'5 5.0
2014-Aug-27 00:32N 53°36' E 008°31'0 0.0
2014-Aug-26 23:29N 53°36' E 008°31'0 0.0
2014-Aug-26 22:29N 53°36' E 008°31'0 0.0
2014-Aug-26 21:32N 53°36' E 008°31'0 0.0
2014-Aug-26 20:29N 53°36' E 008°31'0 0.0
2014-Aug-26 19:29N 53°36' E 008°31'0 0.0
2014-Aug-26 18:32N 53°36' E 008°31'0 0.0
2014-Aug-26 17:26N 53°36' E 008°31'0 0.0
2014-Aug-26 16:29N 53°36' E 008°31'0 0.0
2014-Aug-26 15:32N 53°36' E 008°31'0 0.0
2014-Aug-26 14:23N 53°36' E 008°31'0 0.0
2014-Aug-26 13:29N 53°36' E 008°31'0 0.0
2014-Aug-26 12:32N 53°36' E 008°31'0 0.0
2014-Aug-26 11:32N 53°36' E 008°31'0 0.0
2014-Aug-26 10:32N 53°36' E 008°31'0 0.0
2014-Aug-26 09:32N 53°36' E 008°31'0 0.0
2014-Aug-26 08:32N 53°36' E 008°31'1 1.4
2014-Aug-26 07:33N 53°36' E 008°30'1312.6
2014-Aug-26 06:33N 53°44' E 008°13'1212.1
2014-Aug-26 05:33N 53°51' E 007°57'5 4.9
2014-Aug-26 04:33N 53°55' E 007°52'0 0.1
2014-Aug-26 03:28N 53°56' E 007°52'0 0.0
2014-Aug-26 02:31N 53°56' E 007°52'0 0.0
2014-Aug-26 01:31N 53°56' E 007°52'0 0.1
2014-Aug-26 00:25N 53°55' E 007°52'0 0.1
2014-Aug-25 22:31N 53°55' E 007°52'0 0.0
2014-Aug-25 21:31N 53°55' E 007°52'0 0.0
2014-Aug-25 20:25N 53°55' E 007°52'0 0.0
2014-Aug-25 19:25N 53°55' E 007°52'0 0.0
2014-Aug-25 18:31N 53°55' E 007°52'0 0.0
2014-Aug-25 17:19N 53°55' E 007°52'0 0.1
2014-Aug-25 16:31N 53°55' E 007°52'0 0.0
2014-Aug-25 15:31N 53°55' E 007°52'0 0.0
2014-Aug-25 14:31N 53°56' E 007°52'0 0.2
2014-Aug-25 13:31N 53°56' E 007°52'0 0.1
2014-Aug-25 12:31N 53°55' E 007°52'0 0.0
2014-Aug-25 11:16N 53°55' E 007°52'0 0.0
2014-Aug-25 10:31N 53°55' E 007°52'0 0.0
2014-Aug-25 09:31N 53°55' E 007°52'0 0.0
2014-Aug-25 08:25N 53°55' E 007°52'0 0.0
2014-Aug-25 07:31N 53°55' E 007°52'0 0.0
2014-Aug-25 06:31N 53°55' E 007°52'0 0.0
2014-Aug-25 05:10N 53°55' E 007°52'0 0.1
2014-Aug-25 04:31N 53°55' E 007°52'0 0.2
2014-Aug-25 03:31N 53°56' E 007°52'0 0.2
2014-Aug-25 02:31N 53°55' E 007°52'0 0.0
2014-Aug-25 01:28N 53°55' E 007°52'0 0.2
2014-Aug-25 00:31N 53°55' E 007°52'0 0.1
2014-Aug-24 23:31N 53°56' E 007°52'1 0.6
2014-Aug-24 22:33N 53°56' E 007°53'1010.2
2014-Aug-24 21:33N 54°00' E 008°09'1212.1
2014-Aug-24 20:33N 53°59' E 008°29'1413.7
2014-Aug-24 19:33N 53°50' E 008°48'1414.4
2014-Aug-24 18:33N 53°53' E 009°12'1313.4
2014-Aug-24 17:33N 53°43' E 009°28'1212.5
2014-Aug-24 16:33N 53°34' E 009°42'9 9.2
2014-Aug-24 15:33N 53°33' E 009°57'2 1.6
2014-Aug-24 14:33N 53°32' E 009°60'0 0.0
2014-Aug-24 13:33N 53°32' E 009°60'0 0.0
2014-Aug-24 12:33N 53°32' E 009°60'0 0.0
2014-Aug-24 11:33N 53°32' E 009°60'0 0.0
2014-Aug-24 10:33N 53°32' E 009°60'0 0.0
2014-Aug-24 09:33N 53°32' E 009°60'0 0.0
2014-Aug-24 08:33N 53°32' E 009°60'0 0.0
2014-Aug-24 07:33N 53°32' E 009°60'0 0.0
2014-Aug-24 06:33N 53°32' E 009°60'0 0.0
2014-Aug-24 05:33N 53°32' E 009°60'0 0.0
2014-Aug-24 04:33N 53°32' E 009°60'5 4.8
2014-Aug-24 03:33N 53°33' E 009°52'9 9.1
2014-Aug-24 02:33N 53°35' E 009°37'1110.8
2014-Aug-24 01:33N 53°44' E 009°26'1312.5
2014-Aug-24 00:33N 53°53' E 009°11'1010.4
2014-Aug-23 23:33N 53°50' E 008°54'1413.7
2014-Aug-23 22:34N 53°58' E 008°34'1515.3
2014-Aug-23 21:33N 53°59' E 008°08'6 5.9
2014-Aug-23 20:33N 53°57' E 007°59'3 3.1
2014-Aug-23 19:33N 53°57' E 007°53'17711.1
2014-Aug-23 03:33N 52°15' E 003°53'1111.5
2014-Aug-23 02:33N 52°04' E 003°56'1010.2
2014-Aug-23 01:33N 51°58' E 004°09'8 8.4
2014-Aug-23 00:33N 51°54' E 004°21'3 3.0
2014-Aug-22 23:33N 51°53' E 004°26'0 0.0
2014-Aug-22 22:33N 51°53' E 004°26'0 0.0
2014-Aug-22 21:33N 51°53' E 004°26'0 0.0
2014-Aug-22 20:33N 51°53' E 004°26'0 0.0
2014-Aug-22 19:33N 51°53' E 004°26'0 0.0
2014-Aug-22 18:33N 51°53' E 004°26'0 0.0
2014-Aug-22 17:33N 51°53' E 004°26'0 0.0
2014-Aug-22 16:33N 51°53' E 004°26'0 0.0
2014-Aug-22 15:30N 51°53' E 004°26'0 0.0
2014-Aug-22 14:33N 51°53' E 004°26'0 0.0
2014-Aug-22 13:33N 51°53' E 004°26'0 0.2
2014-Aug-22 12:33N 51°53' E 004°26'5 4.6
2014-Aug-22 11:33N 51°54' E 004°19'9 9.1
2014-Aug-22 10:33N 51°59' E 004°06'1010.1
2014-Aug-22 09:33N 51°60' E 003°50'  
Track history (hours):
 
Tides and Currents Weather Stations Pressure Air Temp Water Temp Dewpoint Dewpoint Depression Visibility Wind Speed Wind Dir Waves Ship Positions

Maersk Nimes

Last reported at 2014-Sep-01 09:16 UTC. Time now 2014-Sep-01 11:44 UTC.
Position N 59°53' E 030°12'.

Length 210 m; draft 10.5 m.

Type: Cargo ship. MMSI: 477559200.

Date/timePositionNaut miles runAvg speedWind from/ knotsBaromVisibWave heightAir tempDewpointWater temp
2014-Sep-01 09:16N 59°53' E 030°12'0 0.1
2014-Sep-01 08:33N 59°53' E 030°12'0 0.0
2014-Aug-31 09:32N 59°53' E 030°11'1 1.2
2014-Aug-31 08:25N 59°54' E 030°14'0 0.0
2014-Aug-31 07:28N 59°54' E 030°14'0 0.0
2014-Aug-31 06:28N 59°54' E 030°14'0 0.0
2014-Aug-31 05:31N 59°54' E 030°14'0 0.0
2014-Aug-31 04:31N 59°54' E 030°14'0 0.0
2014-Aug-31 03:16N 59°54' E 030°14'0 0.0
2014-Aug-31 02:31N 59°54' E 030°14'0 0.0
2014-Aug-31 01:28N 59°54' E 030°14'0 0.0
2014-Aug-31 00:31N 59°54' E 030°14'0 0.0
2014-Aug-30 23:31N 59°54' E 030°14'0 0.0
2014-Aug-30 22:31N 59°54' E 030°14'0 0.0
2014-Aug-30 21:31N 59°54' E 030°14'0 0.0
2014-Aug-30 20:31N 59°54' E 030°14'0 0.0
2014-Aug-30 19:31N 59°54' E 030°14'0 0.0
2014-Aug-30 18:31N 59°54' E 030°14'0 0.0
2014-Aug-30 17:25N 59°54' E 030°14'0 0.0
2014-Aug-30 16:28N 59°54' E 030°14'0 0.0
2014-Aug-30 15:31N 59°54' E 030°14'0 0.0
2014-Aug-30 14:31N 59°54' E 030°14'0 0.1
2014-Aug-30 13:33N 59°53' E 030°13'6 5.7
2014-Aug-30 12:33N 59°55' E 030°02'8313.8
2014-Aug-30 06:33N 60°02' E 027°18'1616.1
2014-Aug-30 05:33N 59°59' E 026°46'1716.9
2014-Aug-30 04:33N 59°57' E 026°13'3516.9
2014-Aug-30 02:29N 59°48' E 025°05'1617.3
2014-Aug-30 01:34N 59°45' E 024°34'1717.3
2014-Aug-30 00:33N 59°41' E 024°01'1817.6
2014-Aug-29 23:33N 59°36' E 023°27'1817.2
2014-Aug-29 22:30N 59°29' E 022°54'24217.0
2014-Aug-29 08:19N 56°30' E 017°48'1317.2
2014-Aug-29 07:33N 56°21' E 017°30'1717.3
2014-Aug-29 06:33N 56°10' E 017°06'7016.9
2014-Aug-29 02:25N 55°34' E 015°20'1416.4
2014-Aug-29 01:33N 55°27' E 014°58'1616.3
2014-Aug-29 00:33N 55°18' E 014°34'1717.1
2014-Aug-28 23:33N 55°05' E 014°15'1616.1
2014-Aug-28 22:33N 54°57' E 013°51'1616.4
2014-Aug-28 21:33N 54°51' E 013°24'1616.0
2014-Aug-28 20:33N 54°47' E 012°57'1616.5
2014-Aug-28 19:33N 54°41' E 012°30'1414.4
2014-Aug-28 18:33N 54°30' E 012°14'1814.0
2014-Aug-28 17:16N 54°26' E 011°44'1217.5
2014-Aug-28 16:33N 54°31' E 011°25'1716.9
2014-Aug-28 15:33N 54°36' E 010°57'1413.3
2014-Aug-28 14:30N 54°50' E 010°50'7314.5
2014-Aug-28 09:29N 56°02' E 011°05'1616.8
2014-Aug-28 08:31N 56°15' E 011°21'1617.0
2014-Aug-28 07:33N 56°30' E 011°35'1716.9
2014-Aug-28 06:33N 56°45' E 011°50'1717.0
2014-Aug-28 05:33N 57°01' E 011°41'1717.0
2014-Aug-28 04:33N 57°17' E 011°30'1716.8
2014-Aug-28 03:33N 57°31' E 011°14'1716.9
2014-Aug-28 02:33N 57°43' E 010°51'1312.6
2014-Aug-28 01:33N 57°47' E 010°29'1615.6
2014-Aug-28 00:33N 57°45' E 009°60'1616.0
2014-Aug-27 23:33N 57°44' E 009°30'1615.9
2014-Aug-27 22:33N 57°36' E 009°05'1616.1
2014-Aug-27 21:33N 57°25' E 008°41'1616.0
2014-Aug-27 20:33N 57°15' E 008°19'2316.0
2014-Aug-27 19:08N 57°01' E 007°47'1016.0
2014-Aug-27 18:31N 56°56' E 007°31'8115.6
2014-Aug-27 13:21N 55°40' E 006°43'5911.6
2014-Aug-27 08:18N 54°43' E 007°07'911.4
2014-Aug-27 07:33N 54°35' E 007°13'1111.6
2014-Aug-27 06:34N 54°24' E 007°20'1212.2
2014-Aug-27 05:33N 54°13' E 007°28'1312.8
2014-Aug-27 04:33N 54°02' E 007°38'1210.1
2014-Aug-27 03:25N 53°52' E 007°50'1213.6
2014-Aug-27 02:33N 53°48' E 008°09'1313.1
2014-Aug-27 01:33N 53°39' E 008°25'5 5.0
2014-Aug-27 00:32N 53°36' E 008°31'0 0.0
2014-Aug-26 23:29N 53°36' E 008°31'0 0.0
2014-Aug-26 22:29N 53°36' E 008°31'0 0.0
2014-Aug-26 21:32N 53°36' E 008°31'0 0.0
2014-Aug-26 20:29N 53°36' E 008°31'0 0.0
2014-Aug-26 19:29N 53°36' E 008°31'0 0.0
2014-Aug-26 18:32N 53°36' E 008°31'0 0.0
2014-Aug-26 17:26N 53°36' E 008°31'0 0.0
2014-Aug-26 16:29N 53°36' E 008°31'0 0.0
2014-Aug-26 15:32N 53°36' E 008°31'0 0.0
2014-Aug-26 14:23N 53°36' E 008°31'0 0.0
2014-Aug-26 13:29N 53°36' E 008°31'0 0.0
2014-Aug-26 12:32N 53°36' E 008°31'0 0.0
2014-Aug-26 11:32N 53°36' E 008°31'0 0.0
2014-Aug-26 10:32N 53°36' E 008°31'0 0.0
2014-Aug-26 09:32N 53°36' E 008°31'0 0.0
2014-Aug-26 08:32N 53°36' E 008°31'1 1.4
2014-Aug-26 07:33N 53°36' E 008°30'1312.6
2014-Aug-26 06:33N 53°44' E 008°13'1212.1
2014-Aug-26 05:33N 53°51' E 007°57'5 4.9
2014-Aug-26 04:33N 53°55' E 007°52'0 0.1
2014-Aug-26 03:28N 53°56' E 007°52'0 0.0
2014-Aug-26 02:31N 53°56' E 007°52'0 0.0
2014-Aug-26 01:31N 53°56' E 007°52'0 0.1
2014-Aug-26 00:25N 53°55' E 007°52'0 0.1
2014-Aug-25 22:31N 53°55' E 007°52'0 0.0
2014-Aug-25 21:31N 53°55' E 007°52'0 0.0
2014-Aug-25 20:25N 53°55' E 007°52'0 0.0
2014-Aug-25 19:25N 53°55' E 007°52'0 0.0
2014-Aug-25 18:31N 53°55' E 007°52'0 0.0
2014-Aug-25 17:19N 53°55' E 007°52'0 0.1
2014-Aug-25 16:31N 53°55' E 007°52'0 0.0
2014-Aug-25 15:31N 53°55' E 007°52'0 0.0
2014-Aug-25 14:31N 53°56' E 007°52'0 0.2
2014-Aug-25 13:31N 53°56' E 007°52'0 0.1
2014-Aug-25 12:31N 53°55' E 007°52'0 0.0
2014-Aug-25 11:16N 53°55' E 007°52'0 0.0
2014-Aug-25 10:31N 53°55' E 007°52'0 0.0
2014-Aug-25 09:31N 53°55' E 007°52'0 0.0
2014-Aug-25 08:25N 53°55' E 007°52'0 0.0
2014-Aug-25 07:31N 53°55' E 007°52'0 0.0
2014-Aug-25 06:31N 53°55' E 007°52'0 0.0
2014-Aug-25 05:10N 53°55' E 007°52'0 0.1
2014-Aug-25 04:31N 53°55' E 007°52'0 0.2
2014-Aug-25 03:31N 53°56' E 007°52'0 0.2
2014-Aug-25 02:31N 53°55' E 007°52'0 0.0
2014-Aug-25 01:28N 53°55' E 007°52'0 0.2
2014-Aug-25 00:31N 53°55' E 007°52'0 0.1
2014-Aug-24 23:31N 53°56' E 007°52'1 0.6
2014-Aug-24 22:33N 53°56' E 007°53'1010.2
2014-Aug-24 21:33N 54°00' E 008°09'1212.1
2014-Aug-24 20:33N 53°59' E 008°29'1413.7
2014-Aug-24 19:33N 53°50' E 008°48'1414.4
2014-Aug-24 18:33N 53°53' E 009°12'1313.4
2014-Aug-24 17:33N 53°43' E 009°28'1212.5
2014-Aug-24 16:33N 53°34' E 009°42'9 9.2
2014-Aug-24 15:33N 53°33' E 009°57'2 1.6
2014-Aug-24 14:33N 53°32' E 009°60'0 0.0
2014-Aug-24 13:33N 53°32' E 009°60'0 0.0
2014-Aug-24 12:33N 53°32' E 009°60'0 0.0
2014-Aug-24 11:33N 53°32' E 009°60'0 0.0
2014-Aug-24 10:33N 53°32' E 009°60'0 0.0
2014-Aug-24 09:33N 53°32' E 009°60'0 0.0
2014-Aug-24 08:33N 53°32' E 009°60'0 0.0
2014-Aug-24 07:33N 53°32' E 009°60'0 0.0
2014-Aug-24 06:33N 53°32' E 009°60'0 0.0
2014-Aug-24 05:33N 53°32' E 009°60'0 0.0
2014-Aug-24 04:33N 53°32' E 009°60'5 4.8
2014-Aug-24 03:33N 53°33' E 009°52'9 9.1
2014-Aug-24 02:33N 53°35' E 009°37'1110.8
2014-Aug-24 01:33N 53°44' E 009°26'1312.5
2014-Aug-24 00:33N 53°53' E 009°11'1010.4
2014-Aug-23 23:33N 53°50' E 008°54'1413.7
2014-Aug-23 22:34N 53°58' E 008°34'1515.3
2014-Aug-23 21:33N 53°59' E 008°08'6 5.9
2014-Aug-23 20:33N 53°57' E 007°59'3 3.1
2014-Aug-23 19:33N 53°57' E 007°53'17711.1
2014-Aug-23 03:33N 52°15' E 003°53'1111.5
2014-Aug-23 02:33N 52°04' E 003°56'1010.2
2014-Aug-23 01:33N 51°58' E 004°09'8 8.4
2014-Aug-23 00:33N 51°54' E 004°21'3 3.0
2014-Aug-22 23:33N 51°53' E 004°26'0 0.0
2014-Aug-22 22:33N 51°53' E 004°26'0 0.0
2014-Aug-22 21:33N 51°53' E 004°26'0 0.0
2014-Aug-22 20:33N 51°53' E 004°26'0 0.0
2014-Aug-22 19:33N 51°53' E 004°26'0 0.0
2014-Aug-22 18:33N 51°53' E 004°26'0 0.0
2014-Aug-22 17:33N 51°53' E 004°26'0 0.0
2014-Aug-22 16:33N 51°53' E 004°26'0 0.0
2014-Aug-22 15:30N 51°53' E 004°26'0 0.0
2014-Aug-22 14:33N 51°53' E 004°26'0 0.0
2014-Aug-22 13:33N 51°53' E 004°26'0 0.2
2014-Aug-22 12:33N 51°53' E 004°26'5 4.6
2014-Aug-22 11:33N 51°54' E 004°19'9 9.1
2014-Aug-22 10:33N 51°59' E 004°06'1010.1
2014-Aug-22 09:33N 51°60' E 003°50'  

Dump ship's entire track history